CES211 ZSPD-RPLL
Flight info
| Callsign | CES211 |
|---|---|
| Flight time | N/A |
| Altitude | 34100 |
| Route | HSN92D HSN W13 BEGMO W117 DST B221 LJG A470 BEBEM/N0450F341 A470 DOTMI DCT ENROM DCT NOMAN A461 AVMUP W16 TADEL |
| Aircraft | A320/M-SDE3FGHIRWY/LB1 |
Departure
| Time | 2026-04-30 09:44 |
|---|---|
| Airport | Shanghai Pudong International Airport (ZSPD) |
Arrival
| Time | N/A |
|---|---|
| Airport | Ninoy Aquino International Airport (RPLL) |
| Time | Latitude | Longitude | Altitude | Speed | Heading |
|---|---|---|---|---|---|
| 2026-04-30 09:00 | 31.14634 | 121.80026 | 23 ft | 0 kts | 252° |
| 2026-04-30 09:26 | 31.14635 | 121.80032 | 23 ft | 2 kts | 248° |
| 2026-04-30 09:26 | 31.14641 | 121.80050 | 23 ft | 2 kts | 249° |
| 2026-04-30 09:26 | 31.14649 | 121.80066 | 26 ft | 2 kts | 213° |
| 2026-04-30 09:27 | 31.14664 | 121.80074 | 24 ft | 2 kts | 173° |
| 2026-04-30 09:27 | 31.14681 | 121.80069 | 23 ft | 2 kts | 162° |
| 2026-04-30 09:27 | 31.14696 | 121.80063 | 24 ft | 2 kts | 162° |
| 2026-04-30 09:27 | 31.14706 | 121.80059 | 24 ft | 1 kts | 162° |
| 2026-04-30 09:32 | 31.14681 | 121.80069 | 25 ft | 9 kts | 162° |
| 2026-04-30 09:33 | 31.14592 | 121.80103 | 23 ft | 16 kts | 162° |
| 2026-04-30 09:33 | 31.14509 | 121.80131 | 23 ft | 8 kts | 184° |
| 2026-04-30 09:33 | 31.14478 | 121.80085 | 23 ft | 7 kts | 253° |
| 2026-04-30 09:33 | 31.14464 | 121.80036 | 23 ft | 6 kts | 252° |
| 2026-04-30 09:34 | 31.14450 | 121.79985 | 24 ft | 10 kts | 252° |
| 2026-04-30 09:34 | 31.14424 | 121.79892 | 23 ft | 8 kts | 252° |
| 2026-04-30 09:34 | 31.14409 | 121.79835 | 25 ft | 7 kts | 252° |
| 2026-04-30 09:34 | 31.14377 | 121.79815 | 23 ft | 5 kts | 180° |
| 2026-04-30 09:35 | 31.14344 | 121.79826 | 24 ft | 7 kts | 162° |
| 2026-04-30 09:35 | 31.14264 | 121.79856 | 23 ft | 17 kts | 161° |
| 2026-04-30 09:35 | 31.14195 | 121.79895 | 23 ft | 8 kts | 123° |
| 2026-04-30 09:35 | 31.14198 | 121.79953 | 26 ft | 7 kts | 72° |
| 2026-04-30 09:36 | 31.14210 | 121.79998 | 23 ft | 5 kts | 72° |
| 2026-04-30 09:36 | 31.14231 | 121.80073 | 24 ft | 14 kts | 72° |
| 2026-04-30 09:36 | 31.14268 | 121.80207 | 23 ft | 19 kts | 72° |
| 2026-04-30 09:36 | 31.14310 | 121.80356 | 23 ft | 20 kts | 73° |
| 2026-04-30 09:37 | 31.14355 | 121.80518 | 23 ft | 22 kts | 72° |
| 2026-04-30 09:37 | 31.14403 | 121.80691 | 23 ft | 23 kts | 72° |
| 2026-04-30 09:37 | 31.14449 | 121.80857 | 24 ft | 20 kts | 72° |
| 2026-04-30 09:37 | 31.14493 | 121.81016 | 24 ft | 21 kts | 72° |
| 2026-04-30 09:38 | 31.14540 | 121.81187 | 23 ft | 23 kts | 72° |
| 2026-04-30 09:38 | 31.14584 | 121.81345 | 23 ft | 16 kts | 72° |
| 2026-04-30 09:38 | 31.14595 | 121.81435 | 23 ft | 10 kts | 121° |
| 2026-04-30 09:38 | 31.14539 | 121.81466 | 22 ft | 9 kts | 161° |
| 2026-04-30 09:39 | 31.14486 | 121.81487 | 23 ft | 8 kts | 162° |
| 2026-04-30 09:39 | 31.14407 | 121.81516 | 23 ft | 16 kts | 162° |
| 2026-04-30 09:39 | 31.14269 | 121.81569 | 23 ft | 25 kts | 161° |
| 2026-04-30 09:39 | 31.14106 | 121.81630 | 23 ft | 25 kts | 162° |
| 2026-04-30 09:40 | 31.13937 | 121.81694 | 23 ft | 26 kts | 162° |
| 2026-04-30 09:40 | 31.13757 | 121.81762 | 23 ft | 28 kts | 162° |
| 2026-04-30 09:40 | 31.13576 | 121.81830 | 22 ft | 26 kts | 162° |
| 2026-04-30 09:40 | 31.13404 | 121.81895 | 22 ft | 27 kts | 162° |
| 2026-04-30 09:41 | 31.13223 | 121.81963 | 23 ft | 28 kts | 162° |
| 2026-04-30 09:41 | 31.13033 | 121.82034 | 22 ft | 29 kts | 162° |
| 2026-04-30 09:41 | 31.12886 | 121.82091 | 22 ft | 22 kts | 161° |
| 2026-04-30 09:41 | 31.12768 | 121.82135 | 23 ft | 16 kts | 162° |
| 2026-04-30 09:42 | 31.12698 | 121.82169 | 23 ft | 9 kts | 138° |
| 2026-04-30 09:42 | 31.12699 | 121.82231 | 23 ft | 7 kts | 72° |
| 2026-04-30 09:42 | 31.12713 | 121.82283 | 22 ft | 6 kts | 72° |
| 2026-04-30 09:42 | 31.12730 | 121.82338 | 22 ft | 10 kts | 65° |
| 2026-04-30 09:43 | 31.12787 | 121.82355 | 21 ft | 6 kts | 342° |
| 2026-04-30 09:43 | 31.12836 | 121.82337 | 22 ft | 16 kts | 342° |
| 2026-04-30 09:43 | 31.13147 | 121.82219 | 22 ft | 82 kts | 342° |
| 2026-04-30 09:43 | 31.13883 | 121.81941 | 27 ft | 137 kts | 342° |
| 2026-04-30 09:44 | 31.14916 | 121.81555 | 262 ft | 161 kts | 343° |
| 2026-04-30 09:44 | 31.15978 | 121.81154 | 947 ft | 160 kts | 342° |
| 2026-04-30 09:44 | 31.17069 | 121.80938 | 1686 ft | 161 kts | 2° |
| 2026-04-30 09:44 | 31.18185 | 121.81099 | 2396 ft | 161 kts | 8° |
| 2026-04-30 09:45 | 31.19302 | 121.81332 | 2938 ft | 170 kts | 8° |
| 2026-04-30 09:45 | 31.20589 | 121.81601 | 3006 ft | 207 kts | 8° |
| 2026-04-30 09:45 | 31.22154 | 121.81919 | 3052 ft | 247 kts | 8° |
| 2026-04-30 09:45 | 31.23892 | 121.82264 | 3827 ft | 256 kts | 8° |
| 2026-04-30 09:46 | 31.25654 | 121.82604 | 4838 ft | 257 kts | 8° |
| 2026-04-30 09:46 | 31.27430 | 121.82940 | 5800 ft | 259 kts | 7° |
| 2026-04-30 09:46 | 31.29194 | 121.83269 | 6764 ft | 260 kts | 6° |
| 2026-04-30 09:46 | 31.31015 | 121.83604 | 7659 ft | 263 kts | 6° |
| 2026-04-30 09:47 | 31.32817 | 121.83932 | 8508 ft | 267 kts | 5° |
| 2026-04-30 09:47 | 31.34625 | 121.84529 | 9345 ft | 278 kts | 21° |
| 2026-04-30 09:47 | 31.36231 | 121.85886 | 10148 ft | 293 kts | 42° |
| 2026-04-30 09:47 | 31.37357 | 121.87942 | 10833 ft | 311 kts | 64° |
| 2026-04-30 09:48 | 31.37852 | 121.90516 | 11124 ft | 341 kts | 84° |
| 2026-04-30 09:48 | 31.37584 | 121.93378 | 11391 ft | 367 kts | 106° |
| 2026-04-30 09:48 | 31.36458 | 121.96088 | 11941 ft | 376 kts | 128° |
| 2026-04-30 09:48 | 31.34605 | 121.98237 | 12612 ft | 376 kts | 149° |
| 2026-04-30 09:49 | 31.32266 | 121.99544 | 13317 ft | 372 kts | 167° |
| 2026-04-30 09:49 | 31.29800 | 122.00485 | 14043 ft | 375 kts | 168° |
| 2026-04-30 09:49 | 31.27305 | 122.01414 | 14705 ft | 378 kts | 169° |
| 2026-04-30 09:49 | 31.24788 | 122.02341 | 15372 ft | 381 kts | 169° |
| 2026-04-30 09:50 | 31.22253 | 122.03270 | 16028 ft | 384 kts | 170° |
| 2026-04-30 09:50 | 31.19697 | 122.04210 | 16684 ft | 387 kts | 170° |
| 2026-04-30 09:50 | 31.17125 | 122.05184 | 17334 ft | 392 kts | 167° |
| 2026-04-30 09:50 | 31.14626 | 122.06588 | 17962 ft | 406 kts | 156° |
| 2026-04-30 09:51 | 31.12320 | 122.08586 | 18545 ft | 420 kts | 144° |
| 2026-04-30 09:51 | 31.10296 | 122.11117 | 19052 ft | 431 kts | 137° |
| 2026-04-30 09:51 | 31.08333 | 122.13781 | 19556 ft | 435 kts | 138° |
| 2026-04-30 09:51 | 31.06346 | 122.16463 | 20053 ft | 439 kts | 139° |
| 2026-04-30 09:52 | 31.04338 | 122.19165 | 20535 ft | 443 kts | 139° |
| 2026-04-30 09:52 | 31.02364 | 122.21669 | 20983 ft | 441 kts | 146° |
| 2026-04-30 09:52 | 31.00016 | 122.23917 | 21434 ft | 433 kts | 156° |
| 2026-04-30 09:52 | 30.97450 | 122.25683 | 21911 ft | 424 kts | 166° |
| 2026-04-30 09:53 | 30.94779 | 122.26938 | 22380 ft | 415 kts | 174° |
| 2026-04-30 09:53 | 30.92016 | 122.27940 | 22854 ft | 417 kts | 175° |
| 2026-04-30 09:53 | 30.89231 | 122.28951 | 23338 ft | 420 kts | 175° |
| 2026-04-30 09:53 | 30.86430 | 122.29972 | 23787 ft | 424 kts | 175° |
| 2026-04-30 09:54 | 30.83612 | 122.31004 | 24191 ft | 426 kts | 175° |
| 2026-04-30 09:54 | 30.80776 | 122.32045 | 24611 ft | 428 kts | 175° |
| 2026-04-30 09:54 | 30.77937 | 122.33089 | 25034 ft | 429 kts | 176° |
| 2026-04-30 09:54 | 30.75083 | 122.34138 | 25445 ft | 430 kts | 176° |
| 2026-04-30 09:55 | 30.72221 | 122.35192 | 25852 ft | 432 kts | 176° |
| 2026-04-30 09:55 | 30.69356 | 122.36246 | 26255 ft | 433 kts | 176° |
| 2026-04-30 09:55 | 30.66476 | 122.37302 | 26651 ft | 434 kts | 176° |
| 2026-04-30 09:55 | 30.63585 | 122.38355 | 27038 ft | 436 kts | 176° |
| 2026-04-30 09:56 | 30.60682 | 122.39341 | 27415 ft | 429 kts | 181° |
| 2026-04-30 09:56 | 30.57782 | 122.39870 | 27785 ft | 415 kts | 190° |
| 2026-04-30 09:56 | 30.54945 | 122.39908 | 28157 ft | 403 kts | 197° |
| 2026-04-30 09:56 | 30.52137 | 122.39740 | 28530 ft | 404 kts | 197° |
| 2026-04-30 09:57 | 30.49324 | 122.39567 | 28891 ft | 406 kts | 197° |
| 2026-04-30 09:57 | 30.46497 | 122.39393 | 29239 ft | 408 kts | 197° |
| 2026-04-30 09:57 | 30.43657 | 122.39224 | 29589 ft | 409 kts | 197° |
| 2026-04-30 09:57 | 30.40807 | 122.39055 | 29892 ft | 411 kts | 197° |
| 2026-04-30 09:58 | 30.37940 | 122.38887 | 30207 ft | 413 kts | 197° |
| 2026-04-30 09:58 | 30.35061 | 122.38722 | 30460 ft | 415 kts | 197° |
| 2026-04-30 09:58 | 30.32169 | 122.38559 | 30703 ft | 418 kts | 197° |
| 2026-04-30 09:58 | 30.29257 | 122.38396 | 30944 ft | 420 kts | 197° |
| 2026-04-30 09:59 | 30.23435 | 122.38065 | 31503 ft | 422 kts | 197° |
| 2026-04-30 09:59 | 30.17584 | 122.37731 | 32197 ft | 420 kts | 197° |
| 2026-04-30 10:00 | 30.11754 | 122.37404 | 32868 ft | 419 kts | 197° |
| 2026-04-30 10:00 | 30.08850 | 122.37238 | 33203 ft | 418 kts | 197° |
| 2026-04-30 10:01 | 30.03046 | 122.36900 | 33872 ft | 416 kts | 197° |
| 2026-04-30 10:01 | 30.00155 | 122.36732 | 34145 ft | 416 kts | 197° |
| 2026-04-30 10:02 | 29.91500 | 122.36721 | 34212 ft | 430 kts | 185° |
| 2026-04-30 10:02 | 29.85579 | 122.38085 | 34209 ft | 434 kts | 183° |
| 2026-04-30 10:03 | 29.79659 | 122.39482 | 34212 ft | 434 kts | 183° |
| 2026-04-30 10:03 | 29.73740 | 122.40872 | 34213 ft | 434 kts | 183° |
| 2026-04-30 10:04 | 29.67821 | 122.42253 | 34206 ft | 434 kts | 183° |
| 2026-04-30 10:04 | 29.61900 | 122.43626 | 34207 ft | 434 kts | 183° |
| 2026-04-30 10:05 | 29.56976 | 122.44768 | 34200 ft | 434 kts | 183° |
| 2026-04-30 10:05 | 29.51047 | 122.46141 | 34200 ft | 434 kts | 183° |
| 2026-04-30 10:06 | 29.44156 | 122.47741 | 34202 ft | 435 kts | 183° |
| 2026-04-30 10:06 | 29.39224 | 122.48892 | 34198 ft | 435 kts | 183° |
| 2026-04-30 10:07 | 29.32290 | 122.50496 | 34202 ft | 435 kts | 183° |
| 2026-04-30 10:07 | 29.28875 | 122.51284 | 34202 ft | 435 kts | 183° |
| 2026-04-30 10:08 | 29.25733 | 122.51996 | 34203 ft | 438 kts | 185° |
| 2026-04-30 10:08 | 29.22757 | 122.52317 | 34227 ft | 421 kts | 193° |
| 2026-04-30 10:08 | 29.19893 | 122.52095 | 34234 ft | 405 kts | 202° |
| 2026-04-30 10:08 | 29.17208 | 122.51372 | 34236 ft | 390 kts | 210° |
| 2026-04-30 10:09 | 29.14737 | 122.50227 | 34231 ft | 378 kts | 217° |